Time;durP1;ratioP1;P1;durP2;ratioP2;P2;SDS_P1;SDS_P2;PMS_P1;PMS_P2;Temp;Humidity;BMP_temperature;BMP_pressure;BME280_temperature;BME280_humidity;BME280_pressure;Samples;Min_cycle;Max_cycle;Signal;HPM_P1;HPM_P2
2021/10/01 00:00:43;;;;;;;3.53;0.90;;;;;;;13.04;56.02;100810.03;5072238;28;20403;-61
2021/10/01 00:03:10;;;;;;;4.45;1.20;;;;;;;13.14;56.01;100802.16;5071675;28;20057;-59
2021/10/01 00:05:39;;;;;;;2.70;1.05;;;;;;;13.09;55.77;100804.31;5072385;28;20052;-61
2021/10/01 00:08:08;;;;;;;4.43;1.23;;;;;;;13.01;56.08;100811.50;5070964;28;20403;-60
2021/10/01 00:10:38;;;;;;;4.20;1.20;;;;;;;12.90;56.81;100798.97;5054338;28;20057;-61
2021/10/01 00:13:06;;;;;;;;;;;;;;;12.89;56.50;100802.91;5062423;28;20044;-60
2021/10/01 00:15:37;;;;;;;4.38;1.10;;;;;;;12.97;56.34;100800.13;5071741;28;19943;-61
2021/10/01 00:18:06;;;;;;;2.78;1.00;;;;;;;13.11;56.18;100780.47;5073211;28;20059;-61
2021/10/01 00:20:34;;;;;;;4.33;1.43;;;;;;;13.15;55.54;100783.44;5072969;28;20052;-62
2021/10/01 00:23:01;;;;;;;2.60;1.08;;;;;;;13.13;55.47;100782.94;5073337;28;20053;-62
2021/10/01 00:25:32;;;;;;;2.92;1.00;;;;;;;13.16;55.48;100768.28;5070510;28;20064;-61
2021/10/01 00:28:00;;;;;;;3.88;1.20;;;;;;;13.17;55.16;100775.56;5072433;28;20513;-61
2021/10/01 00:30:27;;;;;;;4.32;1.10;;;;;;;12.93;56.19;100765.56;5071718;28;20044;-62
2021/10/01 00:32:55;;;;;;;3.75;1.15;;;;;;;13.07;55.58;100775.84;5071274;28;20067;-61
2021/10/01 00:35:23;;;;;;;3.72;0.90;;;;;;;13.11;55.95;100766.47;5072441;28;20110;-61
2021/10/01 00:37:50;;;;;;;3.78;1.27;;;;;;;12.96;56.13;100764.94;5070203;28;20055;-61
2021/10/01 00:40:18;;;;;;;4.70;1.30;;;;;;;13.03;55.66;100761.69;5073091;28;20048;-61
2021/10/01 00:42:48;;;;;;;4.53;1.00;;;;;;;12.89;55.98;100759.00;5071793;28;20045;-62
2021/10/01 00:45:15;;;;;;;2.85;1.42;;;;;;;12.86;56.64;100754.06;5071458;28;20068;-61
2021/10/01 00:47:43;;;;;;;4.55;1.08;;;;;;;12.86;56.03;100759.63;5072464;28;20052;-59
2021/10/01 00:50:11;;;;;;;3.05;1.00;;;;;;;12.89;56.08;100750.63;5071747;28;20063;-61
2021/10/01 00:52:39;;;;;;;4.80;1.10;;;;;;;12.83;56.37;100745.47;5071665;28;20056;-61
2021/10/01 00:55:07;;;;;;;3.10;1.08;;;;;;;12.68;56.91;100747.59;5072694;28;20063;-61
2021/10/01 00:57:35;;;;;;;3.45;1.25;;;;;;;12.67;56.94;100768.28;5069978;28;20152;-60
2021/10/01 01:00:19;;;;;;;3.63;1.30;;;;;;;12.81;56.35;100737.44;5071847;28;20056;-61
2021/10/01 01:02:48;;;;;;;3.10;1.13;;;;;;;12.78;56.80;100741.69;5072333;28;20056;-62
2021/10/01 01:05:18;;;;;;;4.80;1.48;;;;;;;12.75;56.47;100750.72;5070972;28;20056;-61
2021/10/01 01:07:53;;;;;;;4.05;1.15;;;;;;;12.72;56.78;100737.38;5068793;28;20387;-61
2021/10/01 01:10:33;;;;;;;3.45;1.30;;;;;;;12.80;56.34;100733.78;5068555;28;20064;-61
2021/10/01 01:13:10;;;;;;;3.60;1.13;;;;;;;12.69;56.84;100728.84;5071135;28;20414;-61
2021/10/01 01:15:45;;;;;;;3.58;1.10;;;;;;;12.81;56.26;100729.06;5070684;28;20534;-62
2021/10/01 01:18:18;;;;;;;2.78;1.15;;;;;;;12.77;56.52;100733.63;5052982;28;20057;-62
2021/10/01 01:20:50;;;;;;;3.03;1.05;;;;;;;12.72;56.31;100733.75;5054552;28;20052;-60
2021/10/01 01:23:54;;;;;;;3.17;1.05;;;;;;;12.78;56.51;100729.69;5067558;28;20044;-60
2021/10/01 01:26:38;;;;;;;4.90;1.02;;;;;;;12.57;57.26;100733.03;5034251;28;20044;-61
2021/10/01 01:29:15;;;;;;;4.70;1.17;;;;;;;12.56;56.91;100725.81;5069982;28;20051;-61
2021/10/01 01:31:51;;;;;;;3.33;1.02;;;;;;;12.49;57.21;100733.00;5071115;28;20056;-61
2021/10/01 01:34:24;;;;;;;3.80;1.25;;;;;;;12.56;57.21;100714.63;5070006;28;20075;-61
2021/10/01 01:36:58;;;;;;;5.03;0.98;;;;;;;12.62;56.72;100714.47;5073242;28;20411;-62
2021/10/01 01:39:28;;;;;;;3.53;0.98;;;;;;;12.57;57.07;100733.03;5070972;28;20052;-61
2021/10/01 01:41:59;;;;;;;5.00;1.73;;;;;;;12.63;56.57;100707.75;5073542;28;20056;-61
2021/10/01 01:44:29;;;;;;;2.72;1.10;;;;;;;12.71;56.70;100704.19;5071585;28;20053;-61
2021/10/01 01:47:00;;;;;;;2.72;1.38;;;;;;;12.58;56.81;100698.38;5072763;28;20052;-61
2021/10/01 01:49:30;;;;;;;3.25;0.82;;;;;;;12.60;56.78;100700.84;5073014;28;20053;-61
2021/10/01 01:51:59;;;;;;;4.97;1.23;;;;;;;12.59;56.91;100697.22;5072661;28;20446;-61
2021/10/01 01:54:32;;;;;;;3.63;1.17;;;;;;;12.69;56.55;100684.13;5073578;28;20475;-60
2021/10/01 01:57:02;;;;;;;5.25;1.33;;;;;;;12.51;56.88;100698.00;5072678;28;20063;-61
2021/10/01 01:59:30;;;;;;;;;;;;;;;12.50;57.01;100696.38;5073292;28;20052;-60
2021/10/01 02:01:58;;;;;;;2.80;1.10;;;;;;;12.59;56.64;100686.03;5073787;28;19927;-61
2021/10/01 02:04:28;;;;;;;2.30;1.13;;;;;;;12.53;56.59;100692.91;5073012;28;20061;-62
2021/10/01 02:06:58;;;;;;;3.28;0.95;;;;;;;12.63;56.32;100689.03;5073853;28;20045;-61
2021/10/01 02:09:30;;;;;;;3.58;1.20;;;;;;;12.60;56.75;100684.09;5068384;28;20063;-61
2021/10/01 02:12:01;;;;;;;3.15;1.00;;;;;;;12.63;56.52;100677.03;5072280;28;20071;-62
2021/10/01 02:14:43;;;;;;;3.38;1.10;;;;;;;12.63;56.44;100671.44;5071730;28;20060;-61
2021/10/01 02:17:13;;;;;;;3.42;1.10;;;;;;;12.64;56.67;100675.84;5071985;28;20052;-61
2021/10/01 02:19:43;;;;;;;4.18;1.20;;;;;;;12.52;56.52;100677.31;5058828;28;20101;-61
2021/10/01 02:22:13;;;;;;;;;;;;;;;12.51;56.81;100670.06;5069192;28;20044;-61
2021/10/01 02:24:44;;;;;;;4.40;1.20;;;;;;;12.62;56.35;100662.22;5071651;28;20388;-61
2021/10/01 02:27:17;;;;;;;6.20;1.75;;;;;;;12.53;56.86;100670.56;5072210;28;20398;-61
2021/10/01 02:29:53;;;;;;;2.78;1.10;;;;;;;12.50;56.57;100654.47;5062411;28;20056;-60
2021/10/01 02:32:34;;;;;;;4.65;1.00;;;;;;;12.57;56.39;100652.00;5066079;28;20426;-61
2021/10/01 02:35:04;;;;;;;5.38;1.17;;;;;;;12.56;56.37;100658.75;5073512;28;20052;-61
2021/10/01 02:37:33;;;;;;;;;;;;;;;12.65;55.87;100644.81;5072073;28;20068;-61
2021/10/01 02:40:05;;;;;;;4.15;1.17;;;;;;;12.55;56.38;100653.47;5075258;28;19920;-60
2021/10/01 02:42:36;;;;;;;4.07;1.20;;;;;;;12.63;56.23;100649.06;5077244;28;20163;-61
2021/10/01 02:45:09;;;;;;;3.33;1.10;;;;;;;12.67;56.07;100647.28;5076402;28;20052;-61
2021/10/01 02:47:37;;;;;;;3.22;1.00;;;;;;;12.58;56.10;100636.91;5074416;28;20053;-61
2021/10/01 02:50:08;;;;;;;4.45;1.20;;;;;;;12.63;56.22;100637.91;5075740;28;20052;-61
2021/10/01 02:52:47;;;;;;;2.92;0.80;;;;;;;12.61;56.09;100629.84;5074055;28;20499;-61
2021/10/01 02:55:18;;;;;;;3.15;1.00;;;;;;;12.55;56.09;100629.16;5075321;28;20052;-61
2021/10/01 02:57:52;;;;;;;4.28;1.17;;;;;;;12.51;56.09;100630.13;5073886;28;20079;-61
2021/10/01 03:00:22;;;;;;;4.88;0.90;;;;;;;12.53;56.16;100625.84;5074935;28;20048;-61
2021/10/01 03:02:55;;;;;;;7.47;0.90;;;;;;;12.54;56.24;100633.09;5074243;28;20056;-61
2021/10/01 03:05:25;;;;;;;4.20;1.13;;;;;;;12.39;57.01;100631.56;5075004;28;20060;-61
2021/10/01 03:07:55;;;;;;;;;;;;;;;12.44;56.66;100630.59;5073187;28;20072;-61
2021/10/01 03:10:24;;;;;;;2.90;0.85;;;;;;;12.47;56.82;100627.16;5071623;28;19921;-61
2021/10/01 03:13:00;;;;;;;3.17;1.20;;;;;;;12.54;56.69;100619.13;5075063;28;20056;-60
2021/10/01 03:15:31;;;;;;;4.60;1.15;;;;;;;12.40;56.65;100626.81;5069879;28;20079;-61
2021/10/01 03:18:01;;;;;;;1.95;1.00;;;;;;;12.43;56.71;100626.19;5075502;28;20056;-61
2021/10/01 03:20:29;;;;;;;2.75;0.93;;;;;;;12.37;56.57;100633.88;5073294;28;20056;-61
2021/10/01 03:23:02;;;;;;;2.78;1.00;;;;;;;12.35;56.70;100616.59;5074006;28;20414;-61
2021/10/01 03:25:32;;;;;;;6.18;1.98;;;;;;;12.26;57.15;100621.31;5073068;28;20491;-61
2021/10/01 03:28:05;;;;;;;3.95;1.08;;;;;;;12.39;56.68;100622.38;5072471;28;20052;-60
2021/10/01 03:30:33;;;;;;;6.88;1.50;;;;;;;12.15;57.43;100625.56;5072595;28;20518;-59
2021/10/01 03:33:01;;;;;;;3.30;1.10;;;;;;;12.29;57.17;100623.47;5071080;28;20059;-60
2021/10/01 03:35:30;;;;;;;3.55;0.90;;;;;;;12.31;56.96;100612.00;5070475;28;20052;-60
2021/10/01 03:37:59;;;;;;;4.72;1.20;;;;;;;12.27;57.14;100619.38;5072601;28;20130;-59
2021/10/01 03:40:33;;;;;;;3.00;1.10;;;;;;;12.20;57.67;100619.84;5071332;28;20053;-59
2021/10/01 03:43:01;;;;;;;2.95;1.15;;;;;;;12.23;57.41;100615.56;5073476;28;20060;-59
2021/10/01 03:45:28;;;;;;;3.55;1.20;;;;;;;12.20;57.38;100608.66;5071375;28;20056;-59
2021/10/01 03:47:56;;;;;;;2.55;0.88;;;;;;;12.24;57.47;100606.03;5072087;28;20044;-60
2021/10/01 03:50:26;;;;;;;4.40;1.10;;;;;;;12.26;57.14;100612.13;5069262;28;20487;-61
2021/10/01 03:52:54;;;;;;;4.30;1.10;;;;;;;12.26;57.34;100600.94;5072590;28;20052;-61
2021/10/01 03:55:23;;;;;;;2.72;0.93;;;;;;;12.12;57.50;100590.72;5073207;28;20075;-61
2021/10/01 03:57:51;;;;;;;3.08;0.90;;;;;;;12.08;57.66;100600.06;5071896;28;20319;-61
2021/10/01 04:00:19;;;;;;;6.47;1.90;;;;;;;12.05;57.49;100586.75;5073292;28;20049;-61
2021/10/01 04:02:47;;;;;;;4.20;1.25;;;;;;;12.00;57.69;100586.88;5072295;28;20045;-62
2021/10/01 04:05:17;;;;;;;2.28;0.80;;;;;;;12.03;58.03;100589.84;5071444;28;20048;-62
2021/10/01 04:07:45;;;;;;;3.67;1.02;;;;;;;12.05;57.64;100583.94;5072465;28;20063;-60
2021/10/01 04:10:15;;;;;;;3.97;1.10;;;;;;;12.03;57.87;100581.47;5071255;28;20057;-60
2021/10/01 04:12:44;;;;;;;3.50;1.00;;;;;;;12.15;57.13;100597.63;5073199;28;20056;-60
2021/10/01 04:15:12;;;;;;;3.03;1.13;;;;;;;12.04;57.77;100587.91;5072477;28;20057;-60
2021/10/01 04:17:39;;;;;;;4.75;1.10;;;;;;;12.04;57.24;100588.72;5072095;28;20052;-60
2021/10/01 04:20:07;;;;;;;3.63;1.00;;;;;;;12.01;57.73;100588.53;5072111;28;20052;-60
2021/10/01 04:22:35;;;;;;;2.92;0.90;;;;;;;12.10;57.48;100584.63;5072205;28;20053;-60
2021/10/01 04:25:03;;;;;;;3.47;1.20;;;;;;;11.97;57.61;100588.38;5070273;28;20059;-60
2021/10/01 04:27:30;;;;;;;2.78;0.90;;;;;;;12.09;57.26;100580.19;5071509;28;20056;-60
2021/10/01 04:30:00;;;;;;;2.58;1.10;;;;;;;12.04;57.18;100569.16;5071408;28;20060;-60
2021/10/01 04:32:27;;;;;;;3.15;1.00;;;;;;;12.08;57.41;100575.75;5072672;28;20060;-60
2021/10/01 04:35:01;;;;;;;4.38;1.45;;;;;;;12.08;57.37;100578.56;5071596;28;20063;-60
2021/10/01 04:37:29;;;;;;;3.83;1.33;;;;;;;11.96;57.55;100581.13;5072555;28;20052;-60
2021/10/01 04:39:56;;;;;;;2.78;1.00;;;;;;;12.04;57.66;100568.34;5069685;28;20052;-60
2021/10/01 04:42:24;;;;;;;4.80;1.42;;;;;;;12.07;57.38;100584.44;5072774;28;20053;-61
2021/10/01 04:44:51;;;;;;;3.40;1.10;;;;;;;11.96;57.49;100569.94;5070701;28;20056;-61
2021/10/01 04:47:20;;;;;;;3.55;1.10;;;;;;;12.05;57.09;100572.78;5071539;28;20497;-60
2021/10/01 04:49:48;;;;;;;4.20;1.30;;;;;;;11.95;57.80;100565.53;5070825;28;20048;-61
2021/10/01 04:52:16;;;;;;;6.65;1.30;;;;;;;11.96;57.57;100567.97;5070469;28;20045;-61
2021/10/01 04:54:43;;;;;;;4.72;1.15;;;;;;;12.02;57.39;100563.09;5072351;28;20052;-60
2021/10/01 04:57:10;;;;;;;2.55;0.90;;;;;;;11.96;57.31;100565.19;5070607;28;20048;-60
2021/10/01 04:59:38;;;;;;;3.20;0.80;;;;;;;11.93;57.77;100565.03;5070972;28;20045;-61
2021/10/01 05:02:05;;;;;;;2.30;1.00;;;;;;;11.96;57.36;100559.59;5071630;28;20075;-61
2021/10/01 05:04:34;;;;;;;5.07;1.00;;;;;;;12.02;57.27;100557.50;5071162;28;20048;-60
2021/10/01 05:07:01;;;;;;;4.82;1.20;;;;;;;11.98;57.32;100557.31;5071622;28;20475;-60
2021/10/01 05:09:28;;;;;;;4.18;1.10;;;;;;;11.96;57.64;100553.19;5070161;28;20403;-61
2021/10/01 05:11:56;;;;;;;3.53;1.02;;;;;;;12.05;57.32;100556.84;5070178;28;20071;-61
2021/10/01 05:14:23;;;;;;;3.72;1.00;;;;;;;12.08;57.28;100564.59;5065155;28;20048;-61
2021/10/01 05:16:50;;;;;;;3.15;1.00;;;;;;;12.09;57.20;100555.06;5064361;28;20056;-61
2021/10/01 05:19:18;;;;;;;2.75;1.08;;;;;;;12.17;56.78;100553.44;5064223;28;20064;-61
2021/10/01 05:21:47;;;;;;;3.95;1.30;;;;;;;12.16;56.61;100558.22;5067445;28;20398;-59
2021/10/01 05:24:14;;;;;;;2.50;0.90;;;;;;;12.14;56.63;100546.53;5065893;28;20044;-61
2021/10/01 05:26:42;;;;;;;7.03;1.23;;;;;;;11.97;57.34;100549.28;5063002;28;20367;-58
2021/10/01 05:29:09;;;;;;;4.35;1.00;;;;;;;11.98;57.07;100539.75;5063495;28;20056;-60
2021/10/01 05:31:37;;;;;;;2.53;1.00;;;;;;;12.10;56.75;100537.16;5063760;28;20053;-61
2021/10/01 05:34:05;;;;;;;1.73;0.80;;;;;;;12.14;56.54;100549.34;5064811;28;22589;-61
2021/10/01 05:36:34;;;;;;;4.05;1.10;;;;;;;12.19;56.12;100538.00;5063727;28;20056;-60
2021/10/01 05:39:04;;;;;;;4.45;1.20;;;;;;;12.18;56.48;100538.34;5064168;28;20060;-60
2021/10/01 05:41:31;;;;;;;4.10;1.30;;;;;;;12.18;56.20;100543.94;5063605;28;22284;-61
2021/10/01 05:43:59;;;;;;;2.65;1.17;;;;;;;12.22;56.25;100539.34;5064769;28;20045;-61
2021/10/01 05:46:27;;;;;;;3.72;1.40;;;;;;;12.30;55.82;100546.91;5063136;28;20063;-61
2021/10/01 05:48:57;;;;;;;5.30;1.05;;;;;;;12.10;55.99;100537.16;5064161;28;20044;-61
2021/10/01 05:51:25;;;;;;;3.20;0.98;;;;;;;12.28;56.07;100543.63;5062727;28;20057;-61
2021/10/01 05:54:11;;;;;;;6.18;1.00;;;;;;;12.33;55.75;100532.31;5064371;28;20071;-60
2021/10/01 05:56:41;;;;;;;4.30;1.05;;;;;;;12.41;55.32;100533.50;5061708;28;20069;-61
2021/10/01 05:59:08;;;;;;;2.17;0.80;;;;;;;12.41;54.88;100552.19;5062967;28;21766;-61
2021/10/01 06:01:35;;;;;;;4.50;1.23;;;;;;;12.28;55.35;100540.00;5062253;28;20044;-59
2021/10/01 06:04:03;;;;;;;2.60;1.45;;;;;;;12.49;54.91;100532.66;5069968;28;20049;-59
2021/10/01 06:06:30;;;;;;;5.03;1.83;;;;;;;12.48;55.04;100524.63;5067332;28;20875;-60
2021/10/01 06:08:57;;;;;;;5.70;1.25;;;;;;;12.55;55.25;100531.34;5066412;28;20495;-60
2021/10/01 06:11:25;;;;;;;4.05;1.08;;;;;;;12.53;54.53;100533.66;5070295;28;20049;-61
2021/10/01 06:13:54;;;;;;;3.33;0.82;;;;;;;12.59;54.76;100532.34;5071472;28;20060;-61
2021/10/01 06:16:21;;;;;;;2.53;0.93;;;;;;;12.74;53.92;100530.22;5068660;28;20048;-61
2021/10/01 06:18:49;;;;;;;3.40;1.00;;;;;;;12.78;54.09;100523.66;5073253;28;20055;-60
2021/10/01 06:21:17;;;;;;;3.05;0.90;;;;;;;12.84;53.67;100518.72;5072028;28;20491;-61
2021/10/01 06:23:44;;;;;;;3.53;1.05;;;;;;;13.16;52.88;100516.56;5064700;28;20407;-61
2021/10/01 06:26:12;;;;;;;3.97;1.13;;;;;;;13.50;51.83;100514.88;5065349;28;20045;-61
2021/10/01 06:28:39;;;;;;;4.18;1.17;;;;;;;14.13;50.39;100520.75;5066612;28;20064;-59
2021/10/01 06:31:10;;;;;;;3.90;1.20;;;;;;;14.68;48.85;100516.16;5066654;28;20471;-58
2021/10/01 06:33:38;;;;;;;2.88;1.00;;;;;;;14.99;48.16;100526.94;5065116;28;20060;-60
2021/10/01 06:36:06;;;;;;;3.45;1.20;;;;;;;15.48;46.68;100515.13;5065977;28;20049;-60
2021/10/01 06:38:33;;;;;;;6.72;1.80;;;;;;;15.07;46.98;100514.84;5066099;28;20118;-61
2021/10/01 06:41:01;;;;;;;3.75;1.00;;;;;;;15.92;45.30;100498.63;5066052;28;20052;-60
2021/10/01 06:43:30;;;;;;;3.38;1.42;;;;;;;16.59;43.95;100513.22;5067466;28;20048;-60
2021/10/01 06:45:58;;;;;;;;;;;;;;;16.66;43.30;100501.38;5066772;28;20048;-61
2021/10/01 06:48:36;;;;;;;3.03;1.00;;;;;;;17.21;42.63;100503.41;5068127;28;19959;-61
2021/10/01 06:51:29;;;;;;;2.70;1.00;;;;;;;17.73;41.29;100512.88;5068656;28;20048;-61
2021/10/01 07:22:03;;;;;;;3.28;1.30;;;;;;;21.30;33.95;100493.88;5061358;28;20072;-61
2021/10/01 08:19:37;;;;;;;4.03;1.10;;;;;;;27.91;23.83;100477.13;5062276;28;20060;-62
2021/10/01 08:22:04;;;;;;;3.13;1.40;;;;;;;28.88;23.11;100475.38;5058495;28;20049;-62
2021/10/01 08:24:32;;;;;;;2.92;1.50;;;;;;;29.57;21.95;100486.22;5066107;28;20056;-62
2021/10/01 08:27:03;;;;;;;4.55;1.40;;;;;;;29.98;21.57;100501.25;5051443;28;20060;-62
2021/10/01 08:29:32;;;;;;;2.95;1.58;;;;;;;28.87;22.26;100478.66;5062062;28;20053;-62
2021/10/01 08:32:00;;;;;;;3.25;1.10;;;;;;;30.33;20.69;100468.75;5066855;28;20055;-62
2021/10/01 08:34:28;;;;;;;4.13;1.20;;;;;;;29.66;21.68;100466.28;5061723;28;20063;-62
2021/10/01 08:36:56;;;;;;;2.05;1.20;;;;;;;30.58;20.79;100461.53;5055751;28;20048;-62
2021/10/01 08:39:24;;;;;;;2.75;0.98;;;;;;;30.89;20.13;100463.94;5066674;28;20061;-62
2021/10/01 08:41:51;;;;;;;1.83;1.25;;;;;;;31.03;19.87;100452.03;5064761;28;20052;-61
2021/10/01 08:44:20;;;;;;;2.60;1.30;;;;;;;30.02;21.16;100464.63;5063683;28;20052;-62
2021/10/01 08:46:49;;;;;;;;;;;;;;;30.19;21.11;100457.63;5053670;28;20392;-62
2021/10/01 08:49:16;;;;;;;;;;;;;;;31.20;20.44;100444.13;5069308;28;19924;-62
2021/10/01 08:51:45;;;;;;;2.42;1.15;;;;;;;31.49;19.58;100466.28;5065394;28;19924;-62
2021/10/01 08:54:13;;;;;;;3.55;1.45;;;;;;;31.86;19.29;100444.50;5059007;28;20051;-62
2021/10/01 08:56:40;;;;;;;2.95;1.25;;;;;;;32.15;18.74;100455.91;5060856;28;20059;-62
2021/10/01 08:59:08;;;;;;;2.30;1.38;;;;;;;31.17;20.08;100455.75;5060822;28;20057;-61
2021/10/01 09:01:37;;;;;;;2.55;1.35;;;;;;;32.06;19.16;100447.13;5068837;28;20502;-62
2021/10/01 09:04:04;;;;;;;;;;;;;;;33.57;18.03;100451.00;5070980;28;20510;-62
2021/10/01 09:06:34;;;;;;;2.95;1.30;;;;;;;33.47;17.96;100446.47;5069263;28;19925;-61
2021/10/01 09:09:05;;;;;;;1.98;1.27;;;;;;;33.99;17.72;100425.81;5069669;28;20055;-62
2021/10/01 09:11:35;;;;;;;2.92;1.27;;;;;;;32.91;18.43;100435.88;5057316;28;20505;-62
2021/10/01 09:14:04;;;;;;;4.13;1.73;;;;;;;33.08;18.18;100434.41;5059379;28;20059;-62
2021/10/01 09:16:33;;;;;;;2.75;1.40;;;;;;;32.87;18.51;100427.38;5070311;28;20403;-62
2021/10/01 09:19:03;;;;;;;2.25;1.20;;;;;;;33.76;17.70;100413.56;5068628;28;20389;-62
2021/10/01 09:21:32;;;;;;;2.42;1.20;;;;;;;34.52;17.10;100425.56;5062347;28;20045;-62
2021/10/01 09:24:03;;;;;;;2.95;1.10;;;;;;;33.65;17.47;100428.44;5069237;28;20056;-61
2021/10/01 09:26:33;;;;;;;2.80;1.20;;;;;;;32.43;18.81;100426.53;5063562;28;20068;-63
2021/10/01 09:29:02;;;;;;;2.55;1.20;;;;;;;30.82;20.59;100429.63;5061539;28;20056;-63
2021/10/01 09:31:36;;;;;;;3.30;0.90;;;;;;;29.85;21.22;100417.88;5058070;28;20053;-63
2021/10/01 09:34:06;;;;;;;2.60;1.20;;;;;;;29.83;21.82;100418.31;5050321;28;20057;-63
2021/10/01 09:36:34;;;;;;;3.50;1.70;;;;;;;30.18;21.09;100421.53;5061792;28;20048;-62
2021/10/01 09:39:02;;;;;;;2.80;1.20;;;;;;;31.10;19.77;100416.47;5061791;28;20132;-63
2021/10/01 09:41:33;;;;;;;1.95;1.60;;;;;;;32.46;19.26;100411.16;5058949;28;20456;-62
2021/10/01 09:44:09;;;;;;;3.20;1.50;;;;;;;33.33;18.55;100401.66;5054452;28;20395;-63
2021/10/01 09:46:40;;;;;;;2.53;1.00;;;;;;;32.00;19.18;100408.66;5066213;28;20083;-63
2021/10/01 09:49:14;;;;;;;3.72;1.10;;;;;;;31.78;19.15;100396.25;5066743;28;20056;-63
2021/10/01 09:51:49;;;;;;;1.90;1.40;;;;;;;32.08;18.83;100412.09;5067697;28;20706;-63
2021/10/01 09:54:19;;;;;;;2.28;1.30;;;;;;;31.99;18.61;100394.72;5065093;28;20053;-63
2021/10/01 09:56:47;;;;;;;3.60;1.40;;;;;;;32.88;18.32;100403.00;5070246;28;20052;-63
2021/10/01 09:59:17;;;;;;;3.15;1.80;;;;;;;33.00;18.09;100426.47;5071805;28;20060;-63
2021/10/01 10:01:59;;;;;;;2.20;1.38;;;;;;;33.44;17.52;100401.22;5073402;28;20044;-62
2021/10/01 10:04:29;;;;;;;4.55;1.40;;;;;;;34.06;16.64;100402.38;5069018;28;20055;-61
2021/10/01 10:06:57;;;;;;;2.90;1.40;;;;;;;33.88;16.86;100397.38;5073919;28;20055;-61
2021/10/01 10:09:32;;;;;;;4.13;1.50;;;;;;;32.32;17.79;100396.00;5065133;28;20060;-62
2021/10/01 10:12:01;;;;;;;2.65;1.42;;;;;;;33.01;17.77;100402.94;5041897;28;20053;-61
2021/10/01 10:14:32;;;;;;;2.40;1.35;;;;;;;33.11;17.92;100398.03;5038259;28;20053;-61
2021/10/01 10:17:00;;;;;;;2.55;1.42;;;;;;;33.95;16.77;100380.50;5040130;28;20414;-61
2021/10/01 10:19:31;;;;;;;2.50;1.65;;;;;;;34.91;16.20;100380.34;5037579;28;20065;-61
2021/10/01 10:21:59;;;;;;;3.60;1.58;;;;;;;35.61;15.66;100369.97;5046389;28;20492;-61
2021/10/01 10:24:27;;;;;;;3.20;1.42;;;;;;;32.25;18.27;100389.69;5049050;28;20057;-61
2021/10/01 10:26:57;;;;;;;3.30;1.40;;;;;;;32.53;18.20;100371.38;5047426;28;20503;-62
2021/10/01 10:29:26;;;;;;;3.20;1.42;;;;;;;33.75;17.13;100374.41;5049785;28;20053;-62
2021/10/01 10:31:56;;;;;;;2.70;1.40;;;;;;;34.08;17.12;100389.06;5042849;28;20052;-61
2021/10/01 10:34:25;;;;;;;4.20;1.45;;;;;;;34.19;16.92;100382.84;5043822;28;20052;-61
2021/10/01 10:37:06;;;;;;;3.53;1.80;;;;;;;33.47;17.17;100367.69;5052858;28;20049;-61
2021/10/01 10:39:39;;;;;;;2.25;1.50;;;;;;;33.79;17.22;100375.06;5044842;28;20053;-61
2021/10/01 10:42:13;;;;;;;2.55;1.67;;;;;;;34.61;16.77;100372.66;5045789;28;20049;-61
2021/10/01 10:44:44;;;;;;;3.13;1.25;;;;;;;34.93;16.07;100383.56;5038291;28;20350;-61
2021/10/01 10:47:12;;;;;;;3.00;1.10;;;;;;;31.95;18.93;100368.88;5033304;28;20500;-61
2021/10/01 10:49:40;;;;;;;3.53;1.20;;;;;;;30.15;20.59;100362.91;5047264;28;20519;-61
2021/10/01 10:52:12;;;;;;;2.17;1.33;;;;;;;31.62;19.29;100354.78;5046179;28;20572;-61
2021/10/01 10:54:43;;;;;;;3.38;1.35;;;;;;;32.67;18.08;100349.81;5041220;28;20514;-61
2021/10/01 10:57:30;;;;;;;2.47;1.08;;;;;;;32.79;18.38;100347.34;5042706;28;20131;-61
2021/10/01 11:00:02;;;;;;;2.95;1.00;;;;;;;30.71;20.00;100352.31;5035984;28;20498;-61
2021/10/01 11:02:33;;;;;;;4.38;1.10;;;;;;;29.38;21.26;100357.91;5037018;28;20059;-61
2021/10/01 11:05:21;;;;;;;3.42;2.03;;;;;;;30.11;20.50;100352.75;5044600;28;20068;-61
2021/10/01 11:07:52;;;;;;;3.00;1.20;;;;;;;30.12;20.43;100342.91;5042002;28;20049;-61
2021/10/01 11:10:40;;;;;;;3.30;1.40;;;;;;;30.95;19.86;100338.44;5056048;28;20048;-61
2021/10/01 11:13:28;;;;;;;2.40;1.38;;;;;;;31.46;19.05;100346.31;5064288;28;20049;-61
2021/10/01 11:16:21;;;;;;;4.75;1.75;;;;;;;33.34;17.73;100336.06;5059961;28;20514;-61
2021/10/01 11:19:10;;;;;;;4.40;1.40;;;;;;;30.42;19.95;100340.84;5063585;28;20071;-61
2021/10/01 11:21:42;;;;;;;;;;;;;;;29.49;21.29;100336.31;5051927;28;20079;-61
2021/10/01 11:24:14;;;;;;;3.10;1.25;;;;;;;29.58;21.27;100327.06;5062133;28;20287;-61
2021/10/01 11:26:42;;;;;;;2.33;1.20;;;;;;;30.68;20.53;100312.94;5053177;28;20059;-61
2021/10/01 11:29:23;;;;;;;1.88;1.15;;;;;;;29.94;21.17;100311.78;5060436;28;20067;-61
2021/10/01 11:31:52;;;;;;;1.48;0.90;;;;;;;29.88;20.78;100305.81;5071049;28;20048;-59
2021/10/01 11:34:19;;;;;;;2.90;1.00;;;;;;;30.36;20.70;100297.47;5062553;28;20060;-61
2021/10/01 11:36:46;;;;;;;3.38;0.90;;;;;;;28.90;21.66;100289.34;5060949;28;20409;-59
2021/10/01 11:39:16;;;;;;;2.65;0.90;;;;;;;28.24;22.41;100294.03;5061259;28;20065;-61
2021/10/01 11:41:46;;;;;;;3.15;1.20;;;;;;;28.46;22.40;100290.75;5059328;28;20057;-60
2021/10/01 11:44:16;;;;;;;2.50;1.20;;;;;;;29.22;21.13;100289.88;5052289;28;20427;-60
2021/10/01 11:46:46;;;;;;;2.97;0.95;;;;;;;28.18;21.91;100307.28;5065755;28;20045;-61
2021/10/01 11:49:18;;;;;;;2.38;1.17;;;;;;;27.72;21.93;100297.50;5069148;28;20048;-60
2021/10/01 11:51:59;;;;;;;3.25;1.23;;;;;;;27.29;22.40;100289.66;5068943;28;20570;-60
2021/10/01 11:54:29;;;;;;;2.85;1.17;;;;;;;27.35;22.74;100284.28;5060352;28;20057;-60
2021/10/01 11:56:56;;;;;;;;;;;;;;;28.30;22.06;100277.16;5070283;28;20055;-60
2021/10/01 11:59:26;;;;;;;2.88;1.20;;;;;;;28.70;21.81;100277.13;5070879;28;19928;-61
2021/10/01 12:01:58;;;;;;;3.22;1.20;;;;;;;29.19;21.13;100277.25;5068435;28;20063;-61
2021/10/01 12:04:33;;;;;;;2.70;1.10;;;;;;;30.60;20.02;100280.75;5064603;28;20076;-60
2021/10/01 12:07:02;;;;;;;2.10;0.90;;;;;;;29.90;20.32;100285.22;5068719;28;20053;-60
2021/10/01 12:09:30;;;;;;;3.17;1.30;;;;;;;30.19;19.95;100270.84;5067466;28;20379;-61
2021/10/01 12:12:05;;;;;;;2.63;1.00;;;;;;;30.16;19.90;100268.91;5068418;28;20514;-60
2021/10/01 12:14:33;;;;;;;2.17;1.33;;;;;;;32.46;18.14;100259.13;5057582;28;20486;-60
2021/10/01 12:17:04;;;;;;;2.90;1.50;;;;;;;33.93;16.44;100255.91;5069115;28;20059;-60
2021/10/01 12:19:32;;;;;;;3.63;1.60;;;;;;;34.22;15.91;100243.06;5061681;28;20053;-60
2021/10/01 12:22:06;;;;;;;4.00;1.30;;;;;;;34.67;16.70;100244.28;5067459;28;20414;-60
2021/10/01 12:24:45;;;;;;;2.20;1.20;;;;;;;33.57;16.85;100233.59;5061732;28;20400;-61
2021/10/01 12:27:14;;;;;;;2.80;1.40;;;;;;;33.84;16.46;100234.91;5055770;28;20063;-60
2021/10/01 12:29:51;;;;;;;2.83;1.02;;;;;;;34.14;16.45;100227.34;5062927;28;20061;-60
2021/10/01 12:32:21;;;;;;;4.32;1.08;;;;;;;33.99;16.43;100223.50;5064473;28;20423;-60
2021/10/01 12:34:55;;;;;;;3.50;1.20;;;;;;;33.30;17.20;100226.50;5066907;28;20063;-60
2021/10/01 12:37:26;;;;;;;3.00;1.08;;;;;;;33.56;17.09;100226.22;5068860;28;20056;-60
2021/10/01 12:39:58;;;;;;;2.40;1.30;;;;;;;33.90;16.47;100233.78;5062328;28;20044;-60
2021/10/01 12:42:28;;;;;;;2.25;1.00;;;;;;;33.20;16.89;100226.94;5066295;28;20067;-60
2021/10/01 12:45:01;;;;;;;2.38;1.00;;;;;;;32.24;17.89;100230.34;5068504;28;20052;-59
2021/10/01 12:47:30;;;;;;;3.05;1.10;;;;;;;32.90;17.32;100214.97;5058653;28;20053;-60
2021/10/01 12:49:59;;;;;;;4.22;1.10;;;;;;;32.87;17.68;100210.97;5057405;28;20079;-59
2021/10/01 12:52:27;;;;;;;2.60;0.90;;;;;;;31.73;18.59;100222.75;5055498;28;20061;-59
2021/10/01 12:54:59;;;;;;;1.80;0.85;;;;;;;29.37;20.81;100218.59;5061010;28;20059;-59
2021/10/01 12:57:34;;;;;;;2.28;1.00;;;;;;;28.17;21.78;100207.50;5060032;28;20051;-60
2021/10/01 13:00:13;;;;;;;2.63;1.17;;;;;;;27.76;23.36;100195.22;5061442;28;21982;-59
2021/10/01 13:02:43;;;;;;;2.60;1.00;;;;;;;28.68;22.40;100197.31;5066010;28;20419;-60
2021/10/01 13:05:14;;;;;;;2.22;1.00;;;;;;;27.96;22.87;100194.44;5066194;28;20052;-60